Time;durP1;ratioP1;P1;durP2;ratioP2;P2;SDS_P1;SDS_P2;PMS_P1;PMS_P2;Temp;Humidity;BMP_temperature;BMP_pressure;BME280_temperature;BME280_humidity;BME280_pressure;Samples;Min_cycle;Max_cycle;Signal;HPM_P1;HPM_P2
2023/08/03 00:00:23;;;;;;;6.27;2.63;;;;;;;20.35;59.78;98760.47;4210819;28;20236;-69
2023/08/03 00:02:51;;;;;;;3.93;2.13;;;;;;;20.46;59.22;98766.94;4208008;28;20236;-68
2023/08/03 00:05:19;;;;;;;10.20;2.67;;;;;;;20.38;59.80;98756.38;4220893;28;20578;-67
2023/08/03 00:07:47;;;;;;;6.57;2.53;;;;;;;20.31;59.84;98741.97;4213907;28;20247;-68
2023/08/03 00:10:14;;;;;;;5.30;2.80;;;;;;;20.28;60.07;98746.06;4201176;28;20295;-67
2023/08/03 00:12:42;;;;;;;6.23;2.67;;;;;;;20.39;60.01;98741.53;4213413;28;20237;-68
2023/08/03 00:15:09;;;;;;;6.60;2.90;;;;;;;20.32;59.81;98749.16;4210447;28;20287;-68
2023/08/03 00:17:37;;;;;;;4.27;2.47;;;;;;;20.36;59.77;98736.53;4205803;28;23116;-69
2023/08/03 00:20:05;;;;;;;7.57;2.80;;;;;;;20.41;59.76;98731.97;4214211;28;20318;-68
2023/08/03 00:22:32;;;;;;;10.17;2.60;;;;;;;20.38;59.72;98734.38;4208501;28;20493;-67
2023/08/03 00:25:00;;;;;;;9.53;2.70;;;;;;;20.45;59.60;98742.47;4208136;28;21156;-70
2023/08/03 00:27:27;;;;;;;8.90;2.77;;;;;;;20.37;59.94;98732.72;4204745;28;21867;-68
2023/08/03 00:29:54;;;;;;;12.43;2.90;;;;;;;20.46;60.12;98728.44;4208532;28;20242;-67
2023/08/03 00:32:21;;;;;;;5.97;2.57;;;;;;;20.36;60.11;98709.91;4220077;28;20596;-67
2023/08/03 00:34:48;;;;;;;5.87;2.40;;;;;;;20.36;60.33;98707.16;4213106;28;20315;-68
2023/08/03 00:37:14;;;;;;;5.13;2.67;;;;;;;20.38;59.98;98710.50;4210852;28;23491;-68
2023/08/03 00:39:41;;;;;;;4.43;2.43;;;;;;;20.32;60.13;98717.00;4210127;28;20236;-67
2023/08/03 00:42:08;;;;;;;5.63;2.60;;;;;;;20.44;59.85;98722.38;4215189;28;22669;-66
2023/08/03 00:44:35;;;;;;;3.50;2.40;;;;;;;20.47;59.60;98710.88;4219933;28;21584;-68
2023/08/03 00:47:02;;;;;;;4.50;2.40;;;;;;;20.45;59.99;98703.97;4198916;28;20450;-69
2023/08/03 00:49:29;;;;;;;3.50;2.37;;;;;;;20.38;59.97;98701.41;4220203;28;22137;-68
2023/08/03 00:51:56;;;;;;;5.83;2.73;;;;;;;20.34;60.64;98714.81;4229326;28;21464;-67
2023/08/03 00:54:25;;;;;;;7.43;2.50;;;;;;;20.32;60.59;98717.00;4202320;28;20476;-67
2023/08/03 00:56:53;;;;;;;4.43;2.30;;;;;;;20.41;60.38;98712.72;4212541;28;20320;-68
2023/08/03 00:59:20;;;;;;;6.07;2.27;;;;;;;20.45;60.02;98701.22;4218409;28;20235;-69
2023/08/03 01:01:46;;;;;;;6.53;2.30;;;;;;;20.37;60.42;98697.84;4194357;28;20292;-68
2023/08/03 01:04:13;;;;;;;7.60;2.50;;;;;;;20.31;60.85;98695.25;4202370;28;20229;-67
2023/08/03 01:06:40;;;;;;;6.47;2.47;;;;;;;20.47;60.51;98701.81;4206733;28;20232;-68
2023/08/03 01:09:07;;;;;;;5.03;2.60;;;;;;;20.43;60.99;98704.25;4202821;28;20547;-68
2023/08/03 01:11:33;;;;;;;5.47;2.30;;;;;;;20.35;60.97;98683.50;4207010;28;20231;-68
2023/08/03 01:14:00;;;;;;;4.00;2.20;;;;;;;20.46;60.93;98686.41;4218831;28;20237;-68
2023/08/03 01:16:27;;;;;;;6.90;2.70;;;;;;;20.37;60.92;98670.34;4214910;28;20299;-67
2023/08/03 01:18:54;;;;;;;3.50;1.97;;;;;;;20.45;60.87;98671.00;4193375;28;20423;-67
2023/08/03 01:21:21;;;;;;;5.17;2.03;;;;;;;20.45;60.34;98671.81;4205086;28;20246;-67
2023/08/03 01:23:48;;;;;;;4.50;2.40;;;;;;;20.42;60.64;98678.66;4192067;28;20233;-69
2023/08/03 01:26:15;;;;;;;7.50;2.23;;;;;;;20.50;60.31;98682.03;4209845;28;20236;-68
2023/08/03 01:28:42;;;;;;;5.40;2.37;;;;;;;20.49;60.12;98689.47;4207959;28;20267;-69
2023/08/03 01:31:08;;;;;;;4.63;2.33;;;;;;;20.39;60.39;98659.09;4232677;28;20285;-68
2023/08/03 01:33:35;;;;;;;6.97;2.33;;;;;;;20.39;60.28;98661.84;4215577;28;21736;-69
2023/08/03 01:36:02;;;;;;;6.43;2.20;;;;;;;20.23;61.55;98647.09;4220657;28;20231;-69
2023/08/03 01:38:28;;;;;;;5.73;2.13;;;;;;;20.35;60.93;98652.47;4215825;28;20231;-67
2023/08/03 01:40:55;;;;;;;6.83;2.43;;;;;;;20.25;61.05;98654.00;4208796;28;23598;-66
2023/08/03 01:43:21;;;;;;;4.77;2.30;;;;;;;20.31;61.05;98649.41;4194813;28;20255;-68
2023/08/03 01:45:48;;;;;;;5.10;2.23;;;;;;;20.29;61.13;98646.06;4204259;28;20240;-68
2023/08/03 01:48:15;;;;;;;5.10;2.33;;;;;;;20.24;61.35;98646.00;4213502;28;21661;-67
2023/08/03 01:50:41;;;;;;;5.10;2.17;;;;;;;20.26;61.37;98643.81;4207887;28;20439;-67
2023/08/03 01:53:08;;;;;;;4.23;2.43;;;;;;;20.16;61.60;98641.78;4220759;28;20308;-67
2023/08/03 01:55:34;;;;;;;5.10;2.20;;;;;;;20.14;61.47;98646.69;4212015;28;20235;-68
2023/08/03 01:58:01;;;;;;;8.00;2.30;;;;;;;20.08;61.65;98637.56;4218178;28;20390;-67
2023/08/03 02:00:28;;;;;;;8.17;2.33;;;;;;;20.29;60.94;98620.50;4205368;28;22145;-68
2023/08/03 02:02:54;;;;;;;5.70;2.47;;;;;;;20.30;60.80;98634.00;4209149;28;20426;-67
2023/08/03 02:05:21;;;;;;;6.50;2.70;;;;;;;20.32;60.86;98644.72;4212618;28;21046;-68
2023/08/03 02:07:55;;;;;;;4.43;2.40;;;;;;;20.31;60.77;98632.91;4206194;28;20255;-68
2023/08/03 02:10:23;;;;;;;4.10;2.10;;;;;;;20.35;61.03;98644.22;4200205;28;21780;-68
2023/08/03 02:12:50;;;;;;;6.07;2.30;;;;;;;20.36;61.05;98667.84;4198305;28;22231;-69
2023/08/03 02:15:17;;;;;;;6.83;2.17;;;;;;;20.35;60.57;98644.22;4197593;28;20241;-67
2023/08/03 02:17:44;;;;;;;5.73;2.00;;;;;;;20.35;60.80;98639.53;4221074;28;20312;-67
2023/08/03 02:20:11;;;;;;;3.93;2.07;;;;;;;20.36;60.81;98632.97;4206965;28;21794;-68
2023/08/03 02:22:38;;;;;;;3.93;2.00;;;;;;;20.34;60.79;98645.31;4207953;28;20302;-66
2023/08/03 02:25:05;;;;;;;4.93;2.40;;;;;;;20.36;60.78;98630.22;4224223;28;20232;-67
2023/08/03 02:27:32;;;;;;;4.57;2.37;;;;;;;20.35;60.98;98627.75;4212038;28;20426;-69
2023/08/03 02:29:59;;;;;;;9.37;2.67;;;;;;;20.22;61.87;98623.44;4199381;28;21228;-69
2023/08/03 02:32:27;;;;;;;4.60;2.10;;;;;;;20.24;62.31;98633.09;4204627;28;20236;-68
2023/08/03 02:34:54;;;;;;;4.67;2.33;;;;;;;20.18;63.24;98642.38;4207591;28;20300;-67
2023/08/03 02:37:21;;;;;;;7.30;2.70;;;;;;;20.13;63.33;98666.19;4204794;28;21126;-69
2023/08/03 02:39:47;;;;;;;9.33;2.40;;;;;;;20.13;63.34;98652.44;4226643;28;21304;-67
2023/08/03 02:42:14;;;;;;;4.10;2.17;;;;;;;20.04;63.60;98647.38;4218686;28;20234;-66
2023/08/03 02:44:41;;;;;;;9.57;2.40;;;;;;;20.16;63.09;98650.03;4206966;28;20241;-67
2023/08/03 02:47:07;;;;;;;3.83;2.30;;;;;;;20.07;63.58;98635.91;4213284;28;23542;-67
2023/08/03 02:49:34;;;;;;;5.30;2.00;;;;;;;20.02;63.57;98626.75;4219748;28;20347;-67
2023/08/03 02:52:01;;;;;;;4.77;2.13;;;;;;;20.06;63.59;98652.63;4202649;28;20244;-68
2023/08/03 02:54:27;;;;;;;4.13;2.40;;;;;;;20.01;63.62;98653.41;4221676;28;20258;-68
2023/08/03 02:56:54;;;;;;;5.90;2.53;;;;;;;20.05;63.39;98673.78;4220738;28;21506;-69
2023/08/03 02:59:20;;;;;;;4.13;2.30;;;;;;;20.10;63.17;98682.06;4225986;28;22722;-68
2023/08/03 03:01:47;;;;;;;7.73;2.50;;;;;;;20.14;62.84;98689.81;4230352;28;20540;-67
2023/08/03 03:04:14;;;;;;;3.07;1.97;;;;;;;20.16;62.89;98707.72;4210273;28;20232;-68
2023/08/03 03:06:42;;;;;;;3.17;2.00;;;;;;;20.21;62.62;98710.53;4206476;28;20307;-67
2023/08/03 03:09:10;;;;;;;5.57;1.90;;;;;;;20.17;62.39;98692.91;4197361;28;20307;-69
2023/08/03 03:11:36;;;;;;;7.87;2.53;;;;;;;20.14;62.44;98706.31;4208195;28;24957;-67
2023/08/03 03:14:03;;;;;;;5.50;2.00;;;;;;;20.10;62.47;98698.56;4207279;28;20239;-68
2023/08/03 03:16:29;;;;;;;4.53;2.27;;;;;;;20.16;62.21;98680.25;4212739;28;20223;-69
2023/08/03 03:18:56;;;;;;;7.13;1.90;;;;;;;20.27;61.56;98695.78;4230646;28;20231;-69
2023/08/03 03:21:22;;;;;;;3.67;2.17;;;;;;;20.30;61.60;98697.19;4199534;28;20237;-68
2023/08/03 03:23:50;;;;;;;11.30;2.10;;;;;;;20.27;61.32;98671.06;4195857;28;22154;-68
2023/08/03 03:26:16;;;;;;;10.00;2.20;;;;;;;20.31;61.29;98654.91;4217626;28;20303;-68
2023/08/03 03:28:43;;;;;;;6.23;2.40;;;;;;;20.28;61.46;98655.41;4220993;28;20262;-67
2023/08/03 03:31:09;;;;;;;4.93;1.90;;;;;;;20.35;60.97;98630.47;4236724;28;20235;-67
2023/08/03 03:33:36;;;;;;;5.17;2.23;;;;;;;20.34;60.97;98606.84;4237941;28;20227;-68
2023/08/03 03:36:03;;;;;;;5.10;2.30;;;;;;;20.29;61.21;98563.63;4214188;28;22179;-68
2023/08/03 03:38:29;;;;;;;5.67;2.23;;;;;;;20.13;61.63;98449.16;4239486;28;20361;-67
2023/08/03 03:40:56;;;;;;;5.10;2.37;;;;;;;20.07;61.82;98490.34;4238292;28;20291;-68
2023/08/03 03:43:23;;;;;;;5.13;1.90;;;;;;;20.30;61.24;98504.00;4229953;28;25320;-68
2023/08/03 03:45:49;;;;;;;4.73;2.40;;;;;;;20.17;61.25;98473.13;4223740;28;21126;-66
2023/08/03 03:48:16;;;;;;;3.20;2.03;;;;;;;;;;4227017;28;20228;-69
2023/08/03 03:50:42;;;;;;;6.03;2.20;;;;;;;20.22;62.21;98650.94;4220070;28;23570;-70
2023/08/03 03:53:09;;;;;;;5.83;2.10;;;;;;;20.42;61.31;98653.09;4214195;28;25194;-68
2023/08/03 03:55:36;;;;;;;5.13;2.20;;;;;;;20.56;60.71;98681.00;4246058;28;21140;-70
2023/08/03 03:58:02;;;;;;;4.87;2.07;;;;;;;20.72;60.39;98643.56;4257047;28;21092;-66
2023/08/03 04:00:29;;;;;;;4.57;2.20;;;;;;;20.74;60.19;98644.97;4246439;28;20401;-70
2023/08/03 04:02:56;;;;;;;3.60;2.00;;;;;;;20.71;60.42;98667.44;4263654;28;25832;-68
2023/08/03 04:05:25;;;;;;;5.97;2.03;;;;;;;20.84;60.53;98666.25;4237113;28;20986;-68
2023/08/03 04:07:52;;;;;;;5.07;2.43;;;;;;;20.78;60.18;98669.19;4220986;28;20255;-68
2023/08/03 04:10:18;;;;;;;5.57;2.07;;;;;;;20.74;60.51;98663.38;4228852;28;20582;-68
2023/08/03 04:12:45;;;;;;;6.03;2.20;;;;;;;20.77;60.74;98660.13;4220112;28;21835;-69
2023/08/03 04:15:12;;;;;;;5.17;1.83;;;;;;;20.61;61.40;98659.09;4218065;28;20236;-68
2023/08/03 04:17:38;;;;;;;9.20;2.30;;;;;;;20.74;60.88;98653.22;4219505;28;20286;-67
2023/08/03 04:20:06;;;;;;;5.07;2.10;;;;;;;20.76;60.71;98654.91;4221879;28;20867;-67
2023/08/03 04:22:33;;;;;;;14.23;2.17;;;;;;;20.74;60.91;98644.97;4222387;28;22296;-65
2023/08/03 04:24:59;;;;;;;14.57;2.80;;;;;;;20.83;60.66;98655.53;4223538;28;20244;-67
2023/08/03 04:27:26;;;;;;;11.50;2.00;;;;;;;20.76;61.00;98674.97;4218722;28;20235;-68
2023/08/03 04:29:53;;;;;;;8.00;1.97;;;;;;;20.77;60.71;98675.81;4202186;28;20241;-67
2023/08/03 04:32:19;;;;;;;11.27;2.13;;;;;;;20.74;60.87;98669.72;4210297;28;26251;-68
2023/08/03 04:34:46;;;;;;;16.03;2.20;;;;;;;20.68;61.13;98665.22;4201949;28;25581;-68
2023/08/03 04:37:12;;;;;;;11.57;2.23;;;;;;;20.73;60.84;98659.81;4215399;28;20623;-70
2023/08/03 04:39:39;;;;;;;20.60;2.30;;;;;;;20.74;60.60;98666.97;4214110;28;20589;-68
2023/08/03 04:42:06;;;;;;;12.80;2.40;;;;;;;20.76;60.94;98691.47;4222267;28;20251;-69
2023/08/03 04:44:33;;;;;;;6.63;2.57;;;;;;;20.79;61.17;98673.59;4215636;28;20765;-70
2023/08/03 04:46:59;;;;;;;11.63;2.13;;;;;;;20.81;60.83;98676.94;4215554;28;20346;-69
2023/08/03 04:49:26;;;;;;;11.90;2.37;;;;;;;20.89;60.63;98677.28;4209453;28;20230;-71
2023/08/03 04:51:53;;;;;;;10.00;2.40;;;;;;;20.84;60.75;98677.25;4213121;28;21179;-69
2023/08/03 04:54:20;;;;;;;16.13;2.97;;;;;;;21.05;60.42;98697.56;4198582;28;21232;-69
2023/08/03 04:56:47;;;;;;;11.30;2.23;;;;;;;21.13;60.43;98685.25;4217556;28;20240;-71
2023/08/03 04:59:13;;;;;;;6.33;1.90;;;;;;;21.12;60.17;98693.78;4221239;28;20235;-68
2023/08/03 05:01:40;;;;;;;9.67;2.47;;;;;;;21.03;60.85;98707.16;4233058;28;20232;-69
2023/08/03 05:04:08;;;;;;;11.33;1.93;;;;;;;21.20;60.01;98699.63;4228682;28;21841;-69
2023/08/03 05:06:34;;;;;;;6.47;2.50;;;;;;;21.35;60.02;98709.97;4233635;28;21742;-67
2023/08/03 05:09:01;;;;;;;16.30;2.60;;;;;;;21.64;59.80;98715.19;4218787;28;22479;-69
2023/08/03 05:11:28;;;;;;;15.00;2.93;;;;;;;21.62;59.75;98727.56;4203842;28;21079;-71
2023/08/03 05:13:54;;;;;;;15.23;2.83;;;;;;;21.55;60.21;98713.16;4205113;28;20267;-68
2023/08/03 05:16:24;;;;;;;9.70;2.00;;;;;;;21.59;59.97;98711.56;4229343;28;20239;-66
2023/08/03 05:18:51;;;;;;;10.40;2.37;;;;;;;21.60;60.30;98714.03;4208331;28;20236;-68
2023/08/03 05:21:18;;;;;;;12.57;2.60;;;;;;;21.56;60.41;98723.91;4229771;28;20258;-68
2023/08/03 05:23:46;;;;;;;8.10;2.30;;;;;;;21.57;61.04;98700.81;4202351;28;20260;-69
2023/08/03 05:26:14;;;;;;;8.27;2.10;;;;;;;21.52;60.95;98692.50;4209608;28;21591;-69
2023/08/03 05:28:40;;;;;;;14.47;2.37;;;;;;;21.37;61.24;98704.19;4201533;28;20645;-71
2023/08/03 05:31:07;;;;;;;7.63;2.10;;;;;;;21.39;61.49;98693.75;4215438;28;22259;-66
2023/08/03 05:33:35;;;;;;;7.30;1.70;;;;;;;21.44;61.45;98720.50;4243163;28;20234;-70
2023/08/03 05:36:02;;;;;;;6.17;2.37;;;;;;;21.40;61.94;98719.34;4219322;28;21209;-68
2023/08/03 05:38:29;;;;;;;10.20;2.27;;;;;;;21.35;62.28;98707.22;4234052;28;21595;-68
2023/08/03 05:40:55;;;;;;;12.30;2.30;;;;;;;21.44;62.03;98684.72;4212349;28;20597;-68
2023/08/03 05:43:24;;;;;;;11.93;2.83;;;;;;;21.46;62.25;98677.00;4211316;28;20521;-68
2023/08/03 05:45:56;;;;;;;10.03;2.23;;;;;;;21.57;62.24;98677.91;4201847;28;21533;-68
2023/08/03 05:48:22;;;;;;;10.20;2.67;;;;;;;21.62;62.10;98703.59;4211704;28;21790;-69
2023/08/03 05:50:51;;;;;;;21.07;2.70;;;;;;;21.68;61.96;98702.53;4205411;28;20247;-70
2023/08/03 05:53:18;;;;;;;6.07;2.37;;;;;;;21.71;61.88;98692.94;4196759;28;20234;-68
2023/08/03 05:55:45;;;;;;;14.13;2.57;;;;;;;21.74;62.15;98703.41;4212868;28;20608;-72
2023/08/03 05:58:35;;;;;;;10.00;2.17;;;;;;;21.97;61.62;98717.91;4216249;28;20309;-71
2023/08/03 06:01:02;;;;;;;13.47;2.60;;;;;;;22.11;61.40;98729.31;4219097;28;20302;-72
2023/08/03 06:03:32;;;;;;;14.57;2.13;;;;;;;22.14;61.31;98729.59;4214314;28;20236;-73
2023/08/03 06:06:00;;;;;;;7.13;2.40;;;;;;;22.17;61.00;98744.78;4205329;28;20549;-70
2023/08/03 06:08:27;;;;;;;11.67;2.70;;;;;;;22.34;60.75;98750.09;4236156;28;20237;-75
2023/08/03 06:10:57;;;;;;;10.73;1.90;;;;;;;22.73;59.69;98762.78;4213775;28;22130;-69
2023/08/03 06:13:27;;;;;;;12.20;2.50;;;;;;;22.55;60.17;98759.38;4215041;28;20248;-72
2023/08/03 06:15:54;;;;;;;9.70;2.13;;;;;;;22.57;60.15;98784.75;4217212;28;20646;-69
2023/08/03 06:18:21;;;;;;;8.00;1.90;;;;;;;22.59;60.32;98781.72;4201007;28;20249;-71
2023/08/03 06:20:51;;;;;;;7.40;1.80;;;;;;;22.68;60.36;98785.63;4234644;28;20286;-72
2023/08/03 06:23:20;;;;;;;15.97;2.57;;;;;;;22.60;60.80;98786.97;4198740;28;20243;-68
2023/08/03 06:25:48;;;;;;;5.97;2.00;;;;;;;22.52;60.39;98773.69;4203533;28;20278;-73
2023/08/03 06:28:19;;;;;;;7.13;1.90;;;;;;;22.46;60.13;98786.63;4214423;28;20232;-69
2023/08/03 06:30:47;;;;;;;6.00;1.87;;;;;;;22.41;60.76;98771.97;4203916;28;20560;-71
2023/08/03 06:33:15;;;;;;;8.10;2.13;;;;;;;22.53;60.87;98780.84;4199312;28;20237;-72
2023/08/03 06:35:46;;;;;;;9.77;2.23;;;;;;;22.48;60.66;98773.38;4211067;28;20359;-70
2023/08/03 06:38:15;;;;;;;6.77;2.00;;;;;;;22.51;60.61;98768.44;4219722;28;20232;-71
2023/08/03 06:40:43;;;;;;;11.87;1.97;;;;;;;22.54;60.63;98741.16;4212543;28;21758;-73
2023/08/03 06:43:10;;;;;;;9.80;2.13;;;;;;;22.68;60.19;98773.75;4233889;28;20228;-68
2023/08/03 06:45:36;;;;;;;14.63;2.47;;;;;;;22.96;59.56;98794.59;4200542;28;20263;-71
2023/08/03 06:48:03;;;;;;;3.43;1.60;;;;;;;23.13;58.83;98768.69;4203628;28;20231;-70
2023/08/03 06:50:32;;;;;;;13.30;2.07;;;;;;;23.27;58.55;98748.59;4212571;28;20648;-67
2023/08/03 06:53:02;;;;;;;7.23;2.17;;;;;;;23.40;58.05;98750.03;4185007;28;20232;-66
2023/08/03 06:55:29;;;;;;;6.10;1.43;;;;;;;23.39;57.98;98736.50;4211694;28;21757;-68
2023/08/03 06:57:56;;;;;;;4.70;2.00;;;;;;;23.27;58.04;98718.25;4212953;28;20275;-67
2023/08/03 07:00:24;;;;;;;9.70;2.23;;;;;;;23.50;57.73;98648.97;4206327;28;21174;-67
2023/08/03 07:02:51;;;;;;;13.73;2.00;;;;;;;23.81;56.77;98666.31;4233281;28;20239;-66
2023/08/03 07:05:19;;;;;;;7.97;1.93;;;;;;;23.76;56.78;98662.72;4242827;28;20235;-67
2023/08/03 07:07:46;;;;;;;8.63;2.10;;;;;;;23.78;57.07;98724.06;4217695;28;20258;-66
2023/08/03 07:10:13;;;;;;;7.70;2.10;;;;;;;23.63;57.23;98771.88;4229055;28;20311;-69
2023/08/03 07:12:39;;;;;;;6.50;2.20;;;;;;;23.59;57.62;98779.88;4219333;28;20294;-72
2023/08/03 07:15:06;;;;;;;7.23;1.80;;;;;;;23.74;57.27;98798.41;4247886;28;21169;-69
2023/08/03 07:17:33;;;;;;;7.07;1.90;;;;;;;23.60;57.44;98798.13;4229255;28;20656;-69
2023/08/03 07:19:59;;;;;;;7.63;1.90;;;;;;;23.41;58.03;98770.19;4229260;28;20267;-68
2023/08/03 07:22:26;;;;;;;4.30;1.90;;;;;;;23.37;58.02;98780.97;4214047;28;20225;-68
2023/08/03 07:24:54;;;;;;;5.30;2.00;;;;;;;23.41;58.19;98753.63;4224399;28;20235;-68
2023/08/03 07:27:20;;;;;;;2.93;1.63;;;;;;;23.28;58.12;98746.69;4211470;28;20245;-69
2023/08/03 07:29:47;;;;;;;12.63;1.90;;;;;;;23.24;58.82;98765.72;4233649;28;20238;-67
2023/08/03 07:32:13;;;;;;;9.73;2.40;;;;;;;23.38;58.53;98804.69;4224795;28;20243;-68
2023/08/03 07:34:40;;;;;;;10.77;3.57;;;;;;;22.97;60.45;98836.78;4222851;28;21695;-69
2023/08/03 07:37:06;;;;;;;5.27;2.00;;;;;;;22.99;59.92;98823.56;4219321;28;20231;-69
2023/08/03 07:39:33;;;;;;;5.33;2.10;;;;;;;23.10;59.51;98828.84;4254803;28;20317;-71
2023/08/03 07:42:00;;;;;;;5.13;2.03;;;;;;;23.21;59.08;98815.13;4210398;28;20224;-70
2023/08/03 07:44:27;;;;;;;9.37;2.13;;;;;;;23.30;59.25;98802.44;4256371;28;20307;-70
2023/08/03 07:47:13;;;;;;;11.50;2.20;;;;;;;23.19;59.36;98809.06;4221563;28;20324;-68
2023/08/03 07:49:40;;;;;;;3.73;2.00;;;;;;;23.37;58.85;98819.63;4227376;28;21536;-70
2023/08/03 07:52:07;;;;;;;13.40;2.47;;;;;;;23.43;58.67;98820.44;4254454;28;22114;-70
2023/08/03 07:54:33;;;;;;;8.67;1.63;;;;;;;23.33;59.03;98840.56;4216648;28;20297;-71
2023/08/03 07:57:00;;;;;;;5.97;1.60;;;;;;;23.32;58.89;98838.09;4221649;28;20343;-70
2023/08/03 07:59:27;;;;;;;4.60;1.60;;;;;;;23.33;59.22;98815.72;4222122;28;20239;-69
2023/08/03 08:01:53;;;;;;;5.50;2.20;;;;;;;23.35;58.56;98763.81;4231592;28;20634;-69
2023/08/03 08:04:20;;;;;;;7.93;1.90;;;;;;;23.25;58.32;98774.84;4229887;28;23051;-69
2023/08/03 08:06:47;;;;;;;4.13;2.00;;;;;;;23.07;59.30;98803.72;4227686;28;20354;-66
2023/08/03 08:09:14;;;;;;;6.20;1.70;;;;;;;23.14;59.61;98789.69;4213135;28;20232;-68
2023/08/03 08:11:40;;;;;;;5.07;1.67;;;;;;;23.31;59.27;98795.00;4200679;28;20244;-68
2023/08/03 08:14:07;;;;;;;7.43;1.90;;;;;;;23.23;58.64;98788.91;4213611;28;22323;-69
2023/08/03 08:16:33;;;;;;;6.17;1.73;;;;;;;23.20;58.66;98816.22;4218553;28;21725;-69
2023/08/03 08:19:00;;;;;;;4.23;1.73;;;;;;;23.10;59.07;98845.41;4217350;28;25784;-68
2023/08/03 08:21:27;;;;;;;8.60;2.00;;;;;;;23.06;58.98;98854.50;4198896;28;20235;-68
2023/08/03 08:23:54;;;;;;;7.80;2.23;;;;;;;22.96;60.05;98866.31;4206107;28;20232;-69
2023/08/03 08:26:20;;;;;;;6.50;1.70;;;;;;;22.89;59.95;98847.25;4206030;28;20228;-70
2023/08/03 08:28:47;;;;;;;7.43;2.03;;;;;;;23.06;59.48;98833.28;4218040;28;20298;-70
2023/08/03 08:31:29;;;;;;;6.90;1.60;;;;;;;22.94;59.55;98825.22;4211710;28;20302;-71
2023/08/03 08:34:15;;;;;;;8.47;1.43;;;;;;;22.90;60.19;98826.84;4210059;28;21778;-69
2023/08/03 08:36:42;;;;;;;5.37;1.90;;;;;;;22.97;60.21;98804.53;4215379;28;20315;-68
2023/08/03 08:39:09;;;;;;;5.63;2.00;;;;;;;22.93;61.45;98853.91;4230362;28;20242;-70
2023/08/03 08:41:40;;;;;;;6.10;2.00;;;;;;;22.82;62.64;98854.94;4229504;28;21207;-73
2023/08/03 08:44:15;;;;;;;10.10;2.13;;;;;;;22.26;65.11;98881.00;4215628;28;20259;-70
2023/08/03 08:46:43;;;;;;;7.00;2.10;;;;;;;22.03;66.49;98873.06;4213487;28;20232;-70
2023/08/03 08:49:11;;;;;;;6.70;2.00;;;;;;;22.14;64.67;98886.69;4190162;28;25578;-69
2023/08/03 08:51:59;;;;;;;5.03;2.30;;;;;;;22.10;66.34;98874.50;4222646;28;21115;-74
2023/08/03 08:54:31;;;;;;;7.83;1.80;;;;;;;22.26;65.30;98899.44;4221894;28;20345;-70
2023/08/03 08:57:01;;;;;;;4.73;2.30;;;;;;;21.94;67.35;98938.84;4215443;28;21211;-73
2023/08/03 08:59:34;;;;;;;4.90;1.87;;;;;;;21.86;68.41;98923.59;4225766;28;21479;-70
2023/08/03 09:02:02;;;;;;;3.67;1.90;;;;;;;22.00;67.68;98902.81;4224108;28;20231;-70
2023/08/03 09:04:33;;;;;;;4.43;2.03;;;;;;;22.03;67.58;98897.88;4237649;28;21218;-73
2023/08/03 09:07:02;;;;;;;5.97;1.80;;;;;;;21.94;67.63;98892.03;4214509;28;20854;-70
2023/08/03 09:09:35;;;;;;;9.37;2.20;;;;;;;21.88;68.33;98888.38;4233551;28;20833;-72
2023/08/03 09:12:03;;;;;;;3.77;1.73;;;;;;;21.67;69.00;98945.16;4227100;28;25520;-71
2023/08/03 09:14:31;;;;;;;8.17;2.20;;;;;;;21.62;68.91;98945.91;4216490;28;22845;-70
2023/08/03 09:17:17;;;;;;;11.63;2.70;;;;;;;21.70;68.80;98961.16;4220889;28;22665;-70
2023/08/03 09:19:45;;;;;;;3.43;1.90;;;;;;;21.66;68.05;98937.97;4213275;28;21652;-69
2023/08/03 09:22:15;;;;;;;8.83;1.87;;;;;;;21.69;67.67;98937.47;4221060;28;20235;-71
2023/08/03 09:25:07;;;;;;;4.90;2.10;;;;;;;21.73;67.37;98905.56;4202219;28;20247;-74
2023/08/03 09:27:35;;;;;;;8.23;2.00;;;;;;;21.66;67.27;98885.66;4228907;28;20425;-70
2023/08/03 09:30:05;;;;;;;5.67;1.60;;;;;;;21.34;66.91;98853.31;4240706;28;20243;-69
2023/08/03 09:32:35;;;;;;;6.33;2.13;;;;;;;21.47;67.21;98885.13;4214041;28;20316;-71
2023/08/03 09:35:02;;;;;;;4.07;1.60;;;;;;;21.41;66.95;98884.25;4209893;28;20338;-70
2023/08/03 09:37:33;;;;;;;2.87;1.63;;;;;;;21.35;67.59;98971.44;4206317;28;20232;-70
2023/08/03 09:40:04;;;;;;;6.10;1.93;;;;;;;21.26;68.79;98939.94;4214292;28;20246;-50
2023/08/03 09:42:34;;;;;;;7.70;1.87;;;;;;;21.41;67.37;98906.28;4213439;28;20264;-52
2023/08/03 09:45:03;;;;;;;3.33;1.53;;;;;;;21.45;67.04;98912.09;4211918;28;25257;-49
2023/08/03 09:47:36;;;;;;;6.47;1.77;;;;;;;21.42;66.84;98945.66;4210540;28;20862;-48
2023/08/03 09:50:03;;;;;;;13.80;2.20;;;;;;;21.47;67.91;98919.03;4205133;28;20570;-49
2023/08/03 09:52:31;;;;;;;3.03;1.90;;;;;;;21.24;66.71;98927.53;4211820;28;21584;-69
2023/08/03 09:55:07;;;;;;;5.37;1.70;;;;;;;21.32;66.57;98897.63;4200835;28;21845;-71
2023/08/03 09:57:43;;;;;;;4.27;1.60;;;;;;;21.17;65.82;98825.88;4214114;28;20235;-70
2023/08/03 10:00:12;;;;;;;3.33;1.60;;;;;;;20.97;67.23;98832.81;4211888;28;20571;-74
2023/08/03 10:02:43;;;;;;;6.27;1.67;;;;;;;21.12;65.26;98900.94;4232173;28;20398;-75
2023/08/03 10:05:16;;;;;;;4.70;1.60;;;;;;;21.16;65.79;98970.06;4223262;28;20303;-57
2023/08/03 10:08:09;;;;;;;5.20;2.00;;;;;;;21.32;65.15;99020.66;4211646;28;20300;-45
2023/08/03 10:10:40;;;;;;;8.07;2.27;;;;;;;21.30;65.10;99031.91;4197243;28;21207;-46
2023/08/03 10:13:07;;;;;;;6.93;1.70;;;;;;;21.32;65.53;99020.66;4186920;28;20599;-47
2023/08/03 10:15:34;;;;;;;4.53;1.53;;;;;;;21.17;66.60;99044.13;4219180;28;20333;-49
2023/08/03 10:18:05;;;;;;;4.43;2.00;;;;;;;21.11;67.29;99036.03;4207378;28;20310;-47
2023/08/03 10:20:35;;;;;;;3.87;1.70;;;;;;;20.88;68.59;98988.34;4213099;28;20250;-47
2023/08/03 10:23:15;;;;;;;5.77;1.90;;;;;;;20.78;69.47;98955.19;4212030;28;20638;-67
2023/08/03 10:25:53;;;;;;;5.23;2.20;;;;;;;20.71;70.10;98911.34;4216061;28;20235;-68
2023/08/03 10:28:21;;;;;;;7.20;1.93;;;;;;;20.68;71.15;98948.44;4207246;28;21802;-66
2023/08/03 10:31:11;;;;;;;6.13;1.67;;;;;;;20.87;70.26;99001.28;4204408;28;20342;-66
2023/08/03 10:33:46;;;;;;;5.70;2.00;;;;;;;20.84;70.81;99010.03;4226853;28;20292;-68
2023/08/03 10:36:29;;;;;;;4.60;1.90;;;;;;;20.79;70.30;98976.97;4223137;28;20227;-70
2023/08/03 10:39:01;;;;;;;3.37;1.57;;;;;;;20.71;70.51;98982.84;4203889;28;22684;-67
2023/08/03 10:41:31;;;;;;;6.10;1.93;;;;;;;20.76;70.37;98988.44;4208589;28;20333;-67
2023/08/03 10:44:11;;;;;;;7.47;2.17;;;;;;;20.59;71.22;98960.94;4230995;28;20239;-66
2023/08/03 10:46:40;;;;;;;7.40;1.83;;;;;;;20.60;71.27;98904.88;4200066;28;20255;-67
2023/08/03 10:49:19;;;;;;;7.77;2.00;;;;;;;20.56;71.42;98939.41;4253364;28;20856;-69
2023/08/03 10:52:20;;;;;;;4.23;1.90;;;;;;;20.80;71.27;98920.03;4244108;28;21710;-67
2023/08/03 10:54:47;;;;;;;5.53;2.10;;;;;;;20.86;71.70;98888.75;4235654;28;20415;-67
2023/08/03 10:57:24;;;;;;;5.60;1.60;;;;;;;20.76;72.18;98852.88;4217800;28;20338;-68
2023/08/03 10:59:55;;;;;;;5.53;2.23;;;;;;;20.76;73.65;98850.94;4214618;28;20293;-69
2023/08/03 11:02:30;;;;;;;6.70;2.10;;;;;;;20.74;73.49;98880.59;4208732;28;22950;-69
2023/08/03 11:05:03;;;;;;;4.60;1.97;;;;;;;20.57;74.44;98910.84;4203123;28;20239;-69
2023/08/03 11:07:36;;;;;;;4.03;1.90;;;;;;;20.45;75.30;98919.19;4200013;28;20599;-68
2023/08/03 11:10:05;;;;;;;4.17;2.00;;;;;;;20.23;76.95;98903.44;4210742;28;21138;-68
2023/08/03 11:12:32;;;;;;;5.43;2.30;;;;;;;20.48;76.54;98951.69;4219495;28;20231;-68
2023/08/03 11:15:01;;;;;;;7.60;2.50;;;;;;;20.29;77.40;99005.19;4185926;28;20261;-70
2023/08/03 11:17:30;;;;;;;7.57;2.40;;;;;;;20.22;77.78;98988.88;4200875;28;20503;-68
2023/08/03 11:20:00;;;;;;;7.67;2.20;;;;;;;20.24;78.12;99017.75;4214107;28;20636;-68
2023/08/03 11:22:28;;;;;;;5.90;2.13;;;;;;;20.19;78.36;99036.91;4207108;28;20238;-68
2023/08/03 11:25:04;;;;;;;7.13;2.37;;;;;;;20.15;78.15;99032.97;4201236;28;20579;-69
2023/08/03 11:27:31;;;;;;;4.27;2.20;;;;;;;20.19;77.27;99069.88;4197101;28;21166;-68
2023/08/03 11:29:59;;;;;;;8.37;2.60;;;;;;;20.10;77.34;99039.19;4212612;28;20228;-68
2023/08/03 11:32:28;;;;;;;6.10;2.07;;;;;;;20.18;76.77;99059.13;4204794;28;20242;-68
2023/08/03 11:35:04;;;;;;;7.60;2.20;;;;;;;20.13;76.52;99042.53;4222473;28;20244;-69
2023/08/03 11:37:32;;;;;;;8.80;2.03;;;;;;;20.15;76.67;99049.44;4211019;28;20266;-68